createdAt,value
2023-08-07T00:01:57.959Z,38.60
2023-08-07T00:04:25.069Z,40.60
2023-08-07T00:06:52.001Z,40.60
2023-08-07T00:09:18.926Z,41.80
2023-08-07T00:11:45.946Z,40.50
2023-08-07T00:14:12.879Z,40.50
2023-08-07T00:16:39.790Z,42.40
2023-08-07T00:19:06.792Z,43.80
2023-08-07T00:21:33.739Z,44.00
2023-08-07T00:24:01.336Z,44.90
2023-08-07T00:26:28.314Z,46.10
2023-08-07T00:28:55.237Z,48.20
2023-08-07T00:31:22.166Z,48.60
2023-08-07T00:33:53.018Z,51.30
2023-08-07T00:36:19.961Z,52.50
2023-08-07T00:38:46.855Z,54.00
2023-08-07T00:41:13.834Z,54.00
2023-08-07T00:43:40.812Z,54.10
2023-08-07T00:46:07.729Z,54.10
2023-08-07T00:48:34.988Z,54.20
2023-08-07T00:51:01.938Z,54.00
2023-08-07T00:53:28.860Z,54.00
2023-08-07T00:55:55.823Z,54.10
2023-08-07T00:58:22.758Z,54.00
2023-08-07T01:00:49.710Z,54.00
2023-08-07T01:03:16.815Z,54.00
2023-08-07T01:05:43.752Z,55.40
2023-08-07T01:08:10.731Z,55.60
2023-08-07T01:10:44.449Z,55.40
2023-08-07T01:13:20.070Z,55.30
2023-08-07T01:15:47.013Z,56.20
2023-08-07T01:18:13.930Z,56.30
2023-08-07T01:20:41.252Z,58.30
2023-08-07T01:23:08.156Z,56.20
2023-08-07T01:25:38.187Z,58.20
2023-08-07T01:28:05.334Z,57.30
2023-08-07T01:30:39.413Z,57.40
2023-08-07T01:33:09.471Z,57.10
2023-08-07T01:35:37.981Z,56.10
2023-08-07T01:38:04.863Z,55.70
2023-08-07T01:40:31.868Z,54.50
2023-08-07T01:42:58.870Z,53.80
2023-08-07T01:45:26.325Z,53.80
2023-08-07T01:47:54.193Z,54.50
2023-08-07T01:50:21.423Z,55.00
2023-08-07T01:52:48.370Z,55.40
2023-08-07T01:55:16.195Z,55.60
2023-08-07T01:57:50.699Z,54.90
2023-08-07T02:00:18.190Z,55.70
2023-08-07T02:02:46.844Z,55.90
2023-08-07T02:05:14.025Z,56.40
2023-08-07T02:07:41.270Z,57.20
2023-08-07T02:10:08.289Z,57.40
2023-08-07T02:12:36.911Z,57.30
2023-08-07T02:15:04.121Z,57.80
2023-08-07T02:17:42.491Z,58.00
2023-08-07T02:20:10.185Z,57.40
2023-08-07T02:22:37.108Z,58.10
2023-08-07T02:25:04.138Z,57.60
2023-08-07T02:27:31.051Z,58.90
2023-08-07T02:29:58.056Z,58.20
2023-08-07T02:32:24.986Z,57.60
2023-08-07T02:34:54.861Z,56.40
2023-08-07T02:37:24.433Z,55.80
2023-08-07T02:39:51.522Z,56.40
2023-08-07T02:42:18.494Z,55.90
2023-08-07T02:44:45.453Z,57.90
2023-08-07T02:47:12.375Z,58.70
2023-08-07T02:49:39.338Z,59.10
2023-08-07T02:52:06.463Z,61.10
2023-08-07T02:54:33.447Z,61.00
2023-08-07T02:57:00.498Z,60.50
2023-08-07T02:59:27.438Z,61.30
2023-08-07T03:01:54.406Z,62.00
2023-08-07T03:04:21.377Z,62.00
2023-08-07T03:06:48.335Z,62.00
2023-08-07T03:09:15.337Z,62.20
2023-08-07T03:11:42.306Z,62.20
2023-08-07T03:14:09.368Z,62.60
2023-08-07T03:16:36.336Z,62.10
2023-08-07T03:19:03.317Z,62.20
2023-08-07T03:21:30.268Z,62.20
2023-08-07T03:23:57.338Z,62.20
2023-08-07T03:26:24.662Z,61.60
2023-08-07T03:28:52.166Z,62.10
2023-08-07T03:31:19.275Z,61.80
2023-08-07T03:33:47.667Z,61.70
2023-08-07T03:36:16.306Z,61.20
2023-08-07T03:38:43.464Z,61.20
2023-08-07T03:41:11.445Z,61.20
2023-08-07T03:43:41.205Z,60.90
2023-08-07T03:46:08.234Z,61.10
2023-08-07T03:48:35.597Z,61.00
2023-08-07T03:51:04.603Z,60.80
2023-08-07T03:53:32.843Z,60.80
2023-08-07T03:55:59.851Z,62.20
2023-08-07T03:58:27.202Z,62.10
2023-08-07T04:00:55.218Z,61.60
2023-08-07T04:03:22.436Z,62.60
2023-08-07T04:05:52.583Z,62.20
2023-08-07T04:08:19.494Z,62.50
2023-08-07T04:10:46.440Z,62.60
2023-08-07T04:13:13.369Z,62.50
2023-08-07T04:15:40.318Z,62.60
2023-08-07T04:18:07.322Z,62.20
2023-08-07T04:20:34.549Z,62.10
2023-08-07T04:23:01.460Z,61.80
2023-08-07T04:25:28.396Z,61.80
2023-08-07T04:27:56.556Z,62.00
2023-08-07T04:30:23.558Z,62.50
2023-08-07T04:32:50.544Z,62.50
2023-08-07T04:35:17.582Z,63.10
2023-08-07T04:37:44.509Z,62.90
2023-08-07T04:40:11.695Z,62.50
2023-08-07T04:42:38.634Z,61.70
2023-08-07T04:45:06.020Z,62.00
2023-08-07T04:47:32.941Z,61.80
2023-08-07T04:49:59.840Z,61.20
2023-08-07T04:52:27.099Z,61.00
2023-08-07T04:54:54.071Z,61.20
2023-08-07T04:57:21.022Z,61.90
2023-08-07T04:59:47.938Z,61.80
2023-08-07T05:02:14.956Z,61.10
2023-08-07T05:04:41.915Z,61.40
2023-08-07T05:07:09.305Z,60.90
2023-08-07T05:09:36.271Z,61.00
2023-08-07T05:12:03.255Z,61.00
2023-08-07T05:14:30.596Z,61.10
2023-08-07T05:16:57.566Z,61.20
2023-08-07T05:19:24.499Z,60.90
2023-08-07T05:21:52.221Z,61.60
2023-08-07T05:24:19.305Z,62.10
2023-08-07T05:26:46.245Z,62.50
2023-08-07T05:29:13.132Z,62.00
2023-08-07T05:31:40.059Z,66.90
2023-08-07T05:34:07.836Z,70.10
2023-08-07T05:36:34.956Z,71.30
2023-08-07T05:39:01.913Z,72.20
2023-08-07T05:41:28.964Z,72.40
2023-08-07T05:43:55.922Z,72.70
2023-08-07T05:46:22.965Z,73.90
2023-08-07T05:48:49.907Z,73.50
2023-08-07T05:51:16.956Z,73.20
2023-08-07T05:53:43.881Z,72.30
2023-08-07T05:56:11.215Z,71.80
2023-08-07T05:58:38.157Z,70.60
2023-08-07T06:01:05.087Z,69.20
2023-08-07T06:03:32.117Z,65.50
2023-08-07T06:05:59.071Z,61.30
2023-08-07T06:08:26.467Z,61.40
2023-08-07T06:10:53.441Z,60.70
2023-08-07T06:13:34.394Z,62.50
2023-08-07T06:16:02.867Z,61.30
2023-08-07T06:18:31.154Z,60.10
2023-08-07T06:20:58.106Z,58.70
2023-08-07T06:23:25.134Z,60.50
2023-08-07T06:25:56.965Z,53.90
2023-08-07T06:28:25.712Z,43.00
2023-08-07T06:30:52.751Z,36.80
2023-08-07T06:33:19.724Z,31.80
2023-08-07T06:35:46.669Z,30.30
2023-08-07T06:38:23.124Z,34.00
2023-08-07T06:40:50.158Z,32.50
2023-08-07T06:43:17.213Z,31.60
2023-08-07T06:45:44.339Z,32.80
2023-08-07T06:48:11.346Z,32.30
2023-08-07T06:50:38.454Z,33.70
2023-08-07T06:53:05.361Z,33.40
2023-08-07T06:55:32.290Z,37.40
2023-08-07T06:57:59.194Z,36.40
2023-08-07T07:00:26.278Z,37.30
2023-08-07T07:02:54.283Z,39.90
2023-08-07T07:05:21.276Z,37.50
2023-08-07T07:07:48.212Z,33.50
2023-08-07T07:10:15.223Z,25.10
2023-08-07T07:12:42.163Z,19.50
2023-08-07T07:15:10.354Z,16.50
2023-08-07T07:17:37.267Z,10.60
2023-08-07T07:20:04.476Z,12.70
2023-08-07T07:22:31.357Z,1.00
2023-08-07T07:24:58.271Z,1.00
2023-08-07T07:27:27.277Z,1.00
2023-08-07T07:29:54.319Z,1.00
2023-08-07T07:32:21.325Z,1.00
2023-08-07T07:34:48.291Z,1.00
2023-08-07T07:37:16.229Z,1.00
2023-08-07T07:39:43.421Z,1.00
2023-08-07T07:42:10.424Z,1.00
2023-08-07T07:44:37.678Z,1.00
2023-08-07T07:47:04.712Z,1.00
2023-08-07T07:49:31.655Z,1.00
2023-08-07T07:51:58.620Z,1.00
2023-08-07T07:54:25.493Z,1.00
2023-08-07T07:56:52.456Z,1.00
2023-08-07T07:59:19.434Z,1.00
2023-08-07T08:01:46.433Z,1.00
2023-08-07T08:04:13.489Z,1.00
2023-08-07T08:06:41.330Z,1.00
2023-08-07T08:09:11.015Z,1.00
2023-08-07T08:11:38.181Z,1.00
2023-08-07T08:14:05.090Z,1.00
2023-08-07T08:16:32.126Z,1.00
2023-08-07T08:18:59.070Z,1.00
2023-08-07T08:21:26.272Z,1.00
2023-08-07T08:23:53.217Z,1.00
2023-08-07T08:26:20.407Z,1.00
2023-08-07T08:28:47.451Z,1.00
2023-08-07T08:31:14.428Z,1.00
2023-08-07T08:33:41.419Z,1.00
2023-08-07T08:36:08.378Z,1.00
2023-08-07T08:38:36.415Z,1.00
2023-08-07T08:41:03.374Z,1.00
2023-08-07T08:43:31.141Z,1.00
2023-08-07T08:45:58.052Z,1.00
2023-08-07T08:48:25.327Z,1.00
2023-08-07T08:50:52.279Z,1.00
2023-08-07T08:53:19.220Z,1.00
2023-08-07T08:55:48.587Z,1.00
2023-08-07T08:58:16.244Z,1.00
2023-08-07T09:00:43.253Z,1.00
2023-08-07T09:03:10.216Z,1.00
2023-08-07T09:05:37.178Z,1.00
2023-08-07T09:08:04.204Z,1.00
2023-08-07T09:10:31.142Z,1.00
2023-08-07T09:12:58.789Z,1.00
2023-08-07T09:15:25.834Z,1.00
2023-08-07T09:17:53.926Z,1.00
2023-08-07T09:20:22.000Z,1.00
2023-08-07T09:22:49.347Z,1.00
2023-08-07T09:25:16.497Z,1.00
2023-08-07T09:27:43.490Z,1.00
2023-08-07T09:30:11.064Z,1.00
2023-08-07T09:32:38.323Z,1.00
2023-08-07T09:35:09.308Z,1.00
2023-08-07T09:37:37.192Z,1.00
2023-08-07T09:40:04.496Z,1.00
2023-08-07T09:42:31.889Z,1.00
2023-08-07T09:44:59.210Z,1.00
2023-08-07T09:47:26.137Z,1.00
2023-08-07T09:49:55.321Z,1.00
2023-08-07T09:52:22.303Z,1.00
2023-08-07T09:54:49.209Z,1.00
2023-08-07T09:57:16.241Z,1.00
2023-08-07T09:59:43.207Z,1.00
2023-08-07T10:02:11.280Z,1.00
2023-08-07T10:04:38.212Z,1.00
2023-08-07T10:07:05.356Z,1.00
2023-08-07T10:09:32.351Z,1.00
2023-08-07T10:11:59.390Z,1.00
2023-08-07T10:14:26.875Z,1.00
2023-08-07T10:16:53.844Z,1.00
2023-08-07T10:19:20.881Z,1.00
2023-08-07T10:21:47.845Z,1.00
2023-08-07T10:24:15.199Z,1.00
2023-08-07T10:26:45.548Z,1.00
2023-08-07T10:29:13.472Z,1.00
2023-08-07T10:31:40.464Z,1.00
2023-08-07T10:34:07.416Z,1.00
2023-08-07T10:36:35.445Z,1.00
2023-08-07T10:39:09.686Z,1.00
2023-08-07T10:41:43.360Z,1.00
2023-08-07T10:44:22.836Z,1.00
2023-08-07T10:46:50.182Z,1.00
2023-08-07T10:49:34.011Z,1.00
2023-08-07T10:52:04.615Z,1.00
2023-08-07T10:54:31.610Z,1.00
2023-08-07T10:56:58.732Z,1.00
2023-08-07T10:59:25.922Z,1.00
2023-08-07T11:01:56.594Z,1.00
2023-08-07T11:04:26.185Z,1.00
2023-08-07T11:06:53.184Z,1.00
2023-08-07T11:09:20.145Z,1.00
2023-08-07T11:11:47.550Z,1.00
2023-08-07T11:14:17.716Z,1.00
2023-08-07T11:16:45.922Z,1.00
2023-08-07T11:19:13.848Z,1.00
2023-08-07T11:21:40.823Z,1.00
2023-08-07T11:24:07.777Z,1.00
2023-08-07T11:26:34.854Z,1.00
2023-08-07T11:29:01.888Z,1.00
2023-08-07T11:31:29.235Z,1.00
2023-08-07T11:33:56.633Z,1.00
2023-08-07T11:36:23.591Z,1.00
2023-08-07T11:38:50.517Z,1.00
2023-08-07T11:41:18.182Z,1.00
2023-08-07T11:43:45.274Z,1.00
2023-08-07T11:46:12.513Z,1.00
2023-08-07T11:48:39.893Z,1.00
2023-08-07T11:51:08.260Z,1.00
2023-08-07T11:53:36.469Z,1.00
2023-08-07T11:56:06.748Z,1.00
2023-08-07T11:58:37.553Z,1.00
2023-08-07T12:01:08.103Z,1.00
2023-08-07T12:03:38.423Z,1.00
2023-08-07T12:06:05.910Z,1.00
2023-08-07T12:08:33.412Z,1.00
2023-08-07T12:11:01.855Z,1.00
2023-08-07T12:13:28.779Z,1.00
2023-08-07T12:15:56.102Z,1.00
2023-08-07T12:18:24.408Z,1.00
2023-08-07T12:20:52.077Z,1.00
2023-08-07T12:23:19.172Z,1.00
2023-08-07T12:25:46.253Z,1.00
2023-08-07T12:28:13.249Z,1.00
2023-08-07T12:30:40.296Z,1.00
2023-08-07T12:33:08.878Z,1.00
2023-08-07T12:35:36.004Z,1.00
2023-08-07T12:38:05.879Z,1.00
2023-08-07T12:43:03.291Z,1.00
2023-08-07T12:48:00.830Z,1.00
2023-08-07T12:50:27.809Z,1.00
2023-08-07T12:52:54.777Z,1.00
2023-08-07T12:55:21.760Z,1.00
2023-08-07T12:57:50.498Z,1.00
2023-08-07T13:00:17.761Z,1.00
2023-08-07T13:02:48.130Z,1.00
2023-08-07T13:05:15.983Z,1.00
2023-08-07T13:07:42.924Z,1.00
2023-08-07T13:10:10.994Z,1.00
2023-08-07T13:12:38.606Z,1.00
2023-08-07T13:15:09.579Z,1.00
2023-08-07T13:17:36.892Z,1.00
2023-08-07T13:20:08.944Z,1.00
2023-08-07T13:22:38.858Z,1.00
2023-08-07T13:25:06.112Z,1.00
2023-08-07T13:27:33.443Z,1.00
2023-08-07T13:30:00.481Z,1.00
2023-08-07T13:32:27.679Z,1.00
2023-08-07T13:34:54.847Z,1.00
2023-08-07T13:37:21.892Z,1.00
2023-08-07T13:39:53.436Z,1.00
2023-08-07T13:42:20.835Z,1.00
2023-08-07T13:44:47.827Z,1.00
2023-08-07T13:47:15.586Z,1.00
2023-08-07T13:49:42.756Z,1.00
2023-08-07T13:52:09.740Z,1.00
2023-08-07T13:54:36.739Z,1.00
2023-08-07T13:57:03.761Z,1.00
2023-08-07T13:59:31.053Z,1.00
2023-08-07T14:01:58.589Z,1.00
2023-08-07T14:04:25.782Z,1.00
2023-08-07T14:06:52.720Z,1.00
2023-08-07T14:09:23.199Z,1.00
2023-08-07T14:11:50.818Z,1.00
2023-08-07T14:14:18.335Z,1.00
2023-08-07T14:16:45.654Z,1.00
2023-08-07T14:19:12.737Z,1.00
2023-08-07T14:21:40.083Z,1.00
2023-08-07T14:24:07.404Z,1.00
2023-08-07T14:26:34.399Z,1.00
2023-08-07T14:29:01.331Z,1.00
2023-08-07T14:31:28.234Z,1.00
2023-08-07T14:33:55.477Z,1.00
2023-08-07T14:36:22.538Z,1.00
2023-08-07T14:38:49.508Z,1.00
2023-08-07T14:41:16.417Z,1.00
2023-08-07T14:43:43.360Z,1.00
2023-08-07T14:46:10.362Z,1.00
2023-08-07T14:48:37.383Z,1.00
2023-08-07T14:51:04.371Z,1.00
2023-08-07T14:53:31.526Z,1.00
2023-08-07T14:55:58.941Z,1.00
2023-08-07T14:58:25.929Z,1.00
2023-08-07T15:00:56.126Z,1.00
2023-08-07T15:03:23.242Z,1.00
2023-08-07T15:05:50.279Z,1.00
2023-08-07T15:08:17.212Z,1.00
2023-08-07T15:10:44.171Z,1.00
2023-08-07T15:13:11.124Z,1.00
2023-08-07T15:15:38.279Z,1.00
2023-08-07T15:18:06.701Z,1.00
2023-08-07T15:20:36.859Z,1.00
2023-08-07T15:23:04.136Z,1.00
2023-08-07T15:25:31.100Z,1.00
2023-08-07T15:28:01.555Z,1.00
2023-08-07T15:30:29.408Z,1.00
2023-08-07T15:32:56.921Z,1.00
2023-08-07T15:35:23.839Z,1.00
2023-08-07T15:37:51.027Z,1.00
2023-08-07T15:40:18.101Z,1.00
2023-08-07T15:42:46.874Z,1.00
2023-08-07T15:45:14.219Z,1.00
2023-08-07T15:47:41.457Z,1.00
2023-08-07T15:50:08.643Z,1.00
2023-08-07T15:52:35.566Z,1.00
2023-08-07T15:55:02.970Z,1.00
2023-08-07T15:57:29.963Z,1.00
2023-08-07T15:59:57.065Z,1.00
2023-08-07T16:02:24.050Z,1.00
2023-08-07T16:04:51.060Z,1.00
2023-08-07T16:07:18.008Z,1.00
2023-08-07T16:09:45.021Z,1.00
2023-08-07T16:12:11.995Z,1.00
2023-08-07T16:14:39.527Z,1.00
2023-08-07T16:17:06.582Z,1.00
2023-08-07T16:19:33.693Z,1.00
2023-08-07T16:22:00.740Z,1.00
2023-08-07T16:24:28.056Z,1.00
2023-08-07T16:26:54.975Z,1.00
2023-08-07T16:29:21.961Z,1.00
2023-08-07T16:31:48.978Z,1.00
2023-08-07T16:34:16.032Z,1.00
2023-08-07T16:36:43.078Z,1.00
2023-08-07T16:39:09.999Z,1.00
2023-08-07T16:41:37.064Z,1.00
2023-08-07T16:44:04.052Z,1.00
2023-08-07T16:46:31.804Z,1.00
2023-08-07T16:49:00.746Z,1.00
2023-08-07T16:51:27.940Z,1.00
2023-08-07T16:53:54.935Z,1.00
2023-08-07T16:56:21.938Z,1.00
2023-08-07T16:58:49.883Z,1.00
2023-08-07T17:01:17.195Z,1.00
2023-08-07T17:03:44.569Z,1.00
2023-08-07T17:06:11.609Z,1.00
2023-08-07T17:08:38.799Z,1.00
2023-08-07T17:11:05.730Z,1.00
2023-08-07T17:13:32.775Z,1.00
2023-08-07T17:15:59.763Z,1.00
2023-08-07T17:18:26.766Z,1.00
2023-08-07T17:20:53.745Z,1.00
2023-08-07T17:23:20.697Z,1.00
2023-08-07T17:25:47.646Z,1.00
2023-08-07T17:28:14.789Z,1.00
2023-08-07T17:30:41.821Z,1.00
2023-08-07T17:33:08.869Z,1.00
2023-08-07T17:35:36.052Z,1.00
2023-08-07T17:38:03.030Z,1.00
2023-08-07T17:40:29.955Z,1.00
2023-08-07T17:42:56.932Z,1.00
2023-08-07T17:45:24.868Z,1.00
2023-08-07T17:47:51.859Z,1.00
2023-08-07T17:50:18.811Z,1.00
2023-08-07T17:52:45.854Z,1.00
2023-08-07T17:55:13.079Z,1.00
2023-08-07T17:57:40.052Z,1.00
2023-08-07T18:00:08.822Z,1.00
2023-08-07T18:02:35.922Z,1.00
2023-08-07T18:05:03.722Z,1.00
2023-08-07T18:07:31.816Z,1.00
2023-08-07T18:09:58.807Z,1.00
2023-08-07T18:12:25.799Z,1.00
2023-08-07T18:14:52.981Z,1.00
2023-08-07T18:17:19.982Z,1.00
2023-08-07T18:19:46.979Z,1.00
2023-08-07T18:22:14.212Z,1.00
2023-08-07T18:24:41.262Z,1.00
2023-08-07T18:27:08.562Z,1.00
2023-08-07T18:29:35.936Z,1.00
2023-08-07T18:32:03.854Z,1.00
2023-08-07T18:34:30.807Z,1.00
2023-08-07T18:36:58.078Z,1.00
2023-08-07T18:39:25.410Z,1.00
2023-08-07T18:41:52.323Z,1.00
2023-08-07T18:44:19.267Z,1.00
2023-08-07T18:46:46.356Z,1.00
2023-08-07T18:49:13.346Z,1.00
2023-08-07T18:51:40.314Z,1.00
2023-08-07T18:54:07.381Z,1.00
2023-08-07T18:56:34.417Z,1.00
2023-08-07T18:59:04.551Z,1.00
2023-08-07T19:01:32.007Z,1.00
2023-08-07T19:03:59.318Z,1.00
2023-08-07T19:06:26.293Z,1.00
2023-08-07T19:08:54.344Z,1.00
2023-08-07T19:11:22.117Z,1.00
2023-08-07T19:13:49.073Z,1.00
2023-08-07T19:16:16.029Z,1.00
2023-08-07T19:18:43.182Z,1.00
2023-08-07T19:21:10.126Z,1.00
2023-08-07T19:23:37.145Z,1.00
2023-08-07T19:26:04.171Z,1.00
2023-08-07T19:28:31.056Z,1.00
2023-08-07T19:31:05.760Z,1.00
2023-08-07T19:33:33.907Z,1.00
2023-08-07T19:36:00.965Z,1.00
2023-08-07T19:38:27.942Z,1.00
2023-08-07T19:40:54.999Z,1.00
2023-08-07T19:43:23.066Z,1.00
2023-08-07T19:45:50.130Z,1.00
2023-08-07T19:48:17.230Z,1.00
2023-08-07T19:50:44.231Z,1.00
2023-08-07T19:53:11.153Z,1.00
2023-08-07T19:55:38.061Z,1.00
2023-08-07T19:58:06.120Z,1.00
2023-08-07T20:00:33.086Z,1.00
2023-08-07T20:03:00.460Z,1.00
2023-08-07T20:05:27.570Z,1.00
2023-08-07T20:07:54.974Z,1.00
2023-08-07T20:10:25.140Z,1.00
2023-08-07T20:12:52.246Z,1.00
2023-08-07T20:15:19.477Z,1.00
2023-08-07T20:17:46.797Z,1.00
2023-08-07T20:20:14.406Z,1.00
2023-08-07T20:22:41.835Z,1.00
2023-08-07T20:25:10.219Z,1.00
2023-08-07T20:27:37.139Z,1.00
2023-08-07T20:30:04.439Z,1.00
2023-08-07T20:32:31.411Z,1.00
2023-08-07T20:34:58.367Z,1.00
2023-08-07T20:37:25.488Z,1.00
2023-08-07T20:39:52.685Z,1.00
2023-08-07T20:42:19.647Z,1.00
2023-08-07T20:44:46.530Z,1.00
2023-08-07T20:47:13.469Z,1.00
2023-08-07T20:49:40.391Z,1.00
2023-08-07T20:52:07.480Z,1.00
2023-08-07T20:54:34.508Z,1.00
2023-08-07T20:57:01.539Z,1.00
2023-08-07T20:59:28.503Z,1.00
2023-08-07T21:01:55.741Z,1.00
2023-08-07T21:04:24.466Z,1.00
2023-08-07T21:06:51.883Z,1.00
2023-08-07T21:09:19.151Z,1.00
2023-08-07T21:11:46.254Z,1.00
2023-08-07T21:14:13.462Z,1.00
2023-08-07T21:16:40.400Z,1.00
2023-08-07T21:19:07.671Z,1.00
2023-08-07T21:21:34.666Z,1.00
2023-08-07T21:24:01.570Z,1.00
2023-08-07T21:26:28.538Z,1.00
2023-08-07T21:28:55.430Z,1.00
2023-08-07T21:31:22.468Z,1.00
2023-08-07T21:33:49.417Z,1.00
2023-08-07T21:36:16.407Z,1.00
2023-08-07T21:38:43.410Z,1.00
2023-08-07T21:41:10.385Z,1.00
2023-08-07T21:43:37.325Z,1.00
2023-08-07T21:46:04.377Z,1.00
2023-08-07T21:48:31.316Z,1.00
2023-08-07T21:50:58.246Z,1.00
2023-08-07T21:53:25.155Z,1.00
2023-08-07T21:55:52.164Z,1.00
2023-08-07T21:58:19.262Z,1.00
2023-08-07T22:00:47.726Z,1.00
2023-08-07T22:03:14.707Z,1.00
2023-08-07T22:05:41.782Z,1.00
2023-08-07T22:08:08.985Z,1.00
2023-08-07T22:10:35.924Z,1.00
2023-08-07T22:13:02.992Z,1.00
2023-08-07T22:15:29.882Z,1.00
2023-08-07T22:17:57.137Z,1.00
2023-08-07T22:20:25.305Z,1.00
2023-08-07T22:22:52.220Z,1.00
2023-08-07T22:25:19.174Z,1.00
2023-08-07T22:27:46.063Z,1.00
2023-08-07T22:30:14.652Z,1.00
2023-08-07T22:32:42.183Z,1.00
2023-08-07T22:35:09.277Z,1.00
2023-08-07T22:37:36.180Z,1.00
2023-08-07T22:40:03.400Z,1.00
2023-08-07T22:42:30.318Z,1.00
2023-08-07T22:44:57.244Z,1.00
2023-08-07T22:47:24.286Z,1.00
2023-08-07T22:49:51.178Z,1.00
2023-08-07T22:52:18.130Z,1.00
2023-08-07T22:54:45.056Z,1.00
2023-08-07T22:57:12.141Z,1.00
2023-08-07T22:59:39.069Z,1.00
2023-08-07T23:02:06.072Z,1.00
2023-08-07T23:04:32.954Z,1.00
2023-08-07T23:06:59.931Z,1.00
2023-08-07T23:09:27.770Z,1.00
2023-08-07T23:11:54.842Z,1.00
2023-08-07T23:14:21.866Z,1.00
2023-08-07T23:16:48.784Z,1.00
2023-08-07T23:19:15.691Z,1.00
2023-08-07T23:21:42.693Z,1.00
2023-08-07T23:24:09.577Z,1.00
2023-08-07T23:26:36.515Z,1.00
2023-08-07T23:29:03.402Z,1.00
2023-08-07T23:31:30.330Z,1.00
2023-08-07T23:33:57.286Z,1.00
2023-08-07T23:36:24.219Z,1.00
2023-08-07T23:38:51.739Z,1.00
2023-08-07T23:41:18.804Z,1.00
2023-08-07T23:43:45.793Z,1.00
2023-08-07T23:46:12.737Z,1.00
2023-08-07T23:48:40.203Z,1.00
2023-08-07T23:51:07.262Z,1.00
2023-08-07T23:53:34.316Z,1.00
2023-08-07T23:56:01.268Z,1.00
2023-08-07T23:58:28.273Z,1.00
